Portada
METAR-TAF:

METAR-TAF

Aeropuertos :

Texarkana Regional Airport-Webb Field

Texarkana, Arkansas, Estados Unidos

latitud: 33-27-22N, longitud: 093-59-15W, altitud: 118 m

Observación

El informe se hizo hace 29 minutos, a las 15:53 UTC
Viento 6 kt del noroeste
Temperatura 9°C
Humedad 57%
Presión 1027 hPa
Visibilidad: 16.1 km
Cielo despejado

METAR: KTXK 281553Z 32006KT 10SM CLR 09/01 A3034 RMK AO2 SLP276 T00890011

Hora: 10:22 (16:22 UTC)

Pronóstico

El informe se hizo hace 4 horas y 43 minutos, a las 11:39 UTC
Pronóstico válido del 28 a las 12 UTC al 29 a las 12 UTC
Viento 7 kt del oeste-suroeste
Visibilidad: 10 km
Cielo despejado
A partir de las 28 a las 1400 UTC
Viento 9 kt del noroeste
Visibilidad: 10 km
Cielo despejado
A partir de las 29 a las 0000 UTC
Viento 3 kt con dirección variable
Visibilidad: 10 km
Cielo despejado

TAF: KTXK 281139Z 2812/2912 25007KT P6SM SKC FM281400 31009KT P6SM SKC FM290000 VRB03KT P6SM SKC

Observaciones y pronósticos meteorológicos de más de 4000 aeropuertos (mensajes METAR y TAF).

Los puntos amarillos y rojos representan las estaciones disponibles.

Ponga el ratón en el punto deseado para ver el nombre de la estación.

Haga clic para ver las observaciones y los pronósticos meteorológicos.

Para cambiar el mapa : haga clic en los botones verdes con una cruz de color negro para hacer un zoom, en el botón verde con un guión para alejar o en las flechas verdes para mapas adyacentes.


METAR-TAF: